createdAt,value
2023-05-22T00:01:47.012Z,27.30
2023-05-22T00:04:13.664Z,27.33
2023-05-22T00:06:43.559Z,27.02
2023-05-22T00:09:10.171Z,25.90
2023-05-22T00:11:36.796Z,27.25
2023-05-22T00:14:03.557Z,26.52
2023-05-22T00:16:30.213Z,29.02
2023-05-22T00:18:56.867Z,28.33
2023-05-22T00:21:24.521Z,29.20
2023-05-22T00:23:51.082Z,28.88
2023-05-22T00:26:17.636Z,26.52
2023-05-22T00:28:44.199Z,27.65
2023-05-22T00:31:10.740Z,29.73
2023-05-22T00:33:37.268Z,29.80
2023-05-22T00:36:04.187Z,28.33
2023-05-22T00:38:35.242Z,29.02
2023-05-22T00:41:03.665Z,27.60
2023-05-22T00:43:30.754Z,29.00
2023-05-22T00:45:57.535Z,27.35
2023-05-22T00:48:24.614Z,28.73
2023-05-22T00:50:53.623Z,31.17
2023-05-22T00:53:21.497Z,24.52
2023-05-22T00:55:48.450Z,25.77
2023-05-22T00:58:18.101Z,28.45
2023-05-22T01:03:12.023Z,24.35
2023-05-22T01:05:40.214Z,30.65
2023-05-22T01:08:07.887Z,28.60
2023-05-22T01:10:36.668Z,28.27
2023-05-22T01:13:44.350Z,31.80
2023-05-22T01:16:22.088Z,33.20
2023-05-22T01:19:16.596Z,31.05
2023-05-22T01:22:01.357Z,33.33
2023-05-22T01:24:57.010Z,33.33
2023-05-22T01:27:32.406Z,32.63
2023-05-22T01:30:29.572Z,34.72
2023-05-22T01:32:57.809Z,35.55
2023-05-22T01:35:25.498Z,33.50
2023-05-22T01:37:54.115Z,31.83
2023-05-22T01:40:21.011Z,30.98
2023-05-22T01:42:47.790Z,34.95
2023-05-22T01:45:14.687Z,34.15
2023-05-22T01:47:41.257Z,32.53
2023-05-22T01:50:08.464Z,36.20
2023-05-22T01:52:58.813Z,34.50
2023-05-22T01:55:32.798Z,35.58
2023-05-22T01:58:25.419Z,32.90
2023-05-22T02:00:55.741Z,31.60
2023-05-22T02:03:27.652Z,34.00
2023-05-22T02:05:56.792Z,35.88
2023-05-22T02:08:24.350Z,33.85
2023-05-22T02:10:54.709Z,29.30
2023-05-22T02:13:21.698Z,30.90
2023-05-22T02:15:48.672Z,29.85
2023-05-22T02:18:15.463Z,32.75
2023-05-22T02:20:42.044Z,35.20
2023-05-22T02:23:09.097Z,39.55
2023-05-22T02:25:35.670Z,37.25
2023-05-22T02:28:02.213Z,31.10
2023-05-22T02:30:28.968Z,33.92
2023-05-22T02:32:55.564Z,37.00
2023-05-22T02:35:22.125Z,33.40
2023-05-22T02:37:48.669Z,33.78
2023-05-22T02:40:15.238Z,30.52
2023-05-22T02:42:41.816Z,29.27
2023-05-22T02:45:09.006Z,30.33
2023-05-22T02:47:35.566Z,32.78
2023-05-22T02:50:02.125Z,34.72
2023-05-22T02:52:28.697Z,32.05
2023-05-22T02:54:55.214Z,30.85
2023-05-22T02:57:21.926Z,32.00
2023-05-22T02:59:48.494Z,32.13
2023-05-22T03:02:15.795Z,32.25
2023-05-22T03:04:42.332Z,30.23
2023-05-22T03:07:08.991Z,34.63
2023-05-22T03:09:35.711Z,32.83
2023-05-22T03:12:02.235Z,33.05
2023-05-22T03:14:28.804Z,32.80
2023-05-22T03:16:55.361Z,36.42
2023-05-22T03:19:23.041Z,30.48
2023-05-22T03:21:49.912Z,34.35
2023-05-22T03:24:16.758Z,35.45
2023-05-22T03:26:43.311Z,35.70
2023-05-22T03:29:09.997Z,37.30
2023-05-22T03:31:36.710Z,37.13
2023-05-22T03:34:03.733Z,32.15
2023-05-22T03:36:32.428Z,35.67
2023-05-22T03:38:59.073Z,35.47
2023-05-22T03:41:25.654Z,35.15
2023-05-22T03:43:52.251Z,37.58
2023-05-22T03:46:19.462Z,37.47
2023-05-22T03:48:46.061Z,38.22
2023-05-22T03:51:12.633Z,39.35
2023-05-22T03:53:39.204Z,37.53
2023-05-22T03:56:06.024Z,38.80
2023-05-22T03:58:32.567Z,38.10
2023-05-22T04:00:59.126Z,35.95
2023-05-22T04:03:25.733Z,36.83
2023-05-22T04:05:52.390Z,37.50
2023-05-22T04:08:19.374Z,34.60
2023-05-22T04:10:45.972Z,37.78
2023-05-22T04:13:13.530Z,32.75
2023-05-22T04:15:40.196Z,36.80
2023-05-22T04:18:07.115Z,33.45
2023-05-22T04:20:33.938Z,34.25
2023-05-22T04:23:00.486Z,38.22
2023-05-22T04:25:26.995Z,32.85
2023-05-22T04:27:53.553Z,30.65
2023-05-22T04:30:20.065Z,32.80
2023-05-22T04:32:46.632Z,33.80
2023-05-22T04:35:13.330Z,32.42
2023-05-22T04:37:39.976Z,32.58
2023-05-22T04:40:08.488Z,36.08
2023-05-22T04:42:36.266Z,36.60
2023-05-22T04:45:03.107Z,35.63
2023-05-22T04:47:29.826Z,33.97
2023-05-22T04:49:56.390Z,38.33
2023-05-22T04:52:22.919Z,37.17
2023-05-22T04:54:49.499Z,37.60
2023-05-22T04:57:16.115Z,33.20
2023-05-22T04:59:42.715Z,36.92
2023-05-22T05:02:09.339Z,34.45
2023-05-22T05:04:35.980Z,36.60
2023-05-22T05:07:02.669Z,37.85
2023-05-22T05:09:29.422Z,35.60
2023-05-22T05:11:56.192Z,33.17
2023-05-22T05:14:22.751Z,40.53
2023-05-22T05:16:49.462Z,42.05
2023-05-22T05:19:16.080Z,40.22
2023-05-22T05:21:42.654Z,43.05
2023-05-22T05:24:09.243Z,40.22
2023-05-22T05:26:35.870Z,42.97
2023-05-22T05:29:02.464Z,40.25
2023-05-22T05:31:29.075Z,45.30
2023-05-22T05:33:55.661Z,43.47
2023-05-22T05:36:24.196Z,38.22
2023-05-22T05:38:50.818Z,42.05
2023-05-22T05:41:17.416Z,41.30
2023-05-22T05:43:43.943Z,44.45
2023-05-22T05:46:10.554Z,47.97
2023-05-22T05:48:37.165Z,41.80
2023-05-22T05:51:03.754Z,44.92
2023-05-22T05:53:30.307Z,47.92
2023-05-22T05:55:56.896Z,43.03
2023-05-22T05:58:23.454Z,48.78
2023-05-22T06:00:50.058Z,51.22
2023-05-22T06:03:16.799Z,56.72
2023-05-22T06:05:43.527Z,51.15
2023-05-22T06:08:10.091Z,53.30
2023-05-22T06:10:36.868Z,55.17
2023-05-22T06:13:03.632Z,51.88
2023-05-22T06:15:30.199Z,49.55
2023-05-22T06:17:56.885Z,49.83
2023-05-22T06:20:23.570Z,44.47
2023-05-22T06:22:50.196Z,48.50
2023-05-22T06:25:16.846Z,43.65
2023-05-22T06:27:43.494Z,48.88
2023-05-22T06:30:10.314Z,48.78
2023-05-22T06:32:36.984Z,46.45
2023-05-22T06:35:03.850Z,46.58
2023-05-22T06:37:30.407Z,49.78
2023-05-22T06:39:57.041Z,45.60
2023-05-22T06:42:23.578Z,47.58
2023-05-22T06:44:50.143Z,51.70
2023-05-22T06:47:16.796Z,47.88
2023-05-22T06:49:43.343Z,41.50
2023-05-22T06:52:09.847Z,42.53
2023-05-22T06:54:36.419Z,41.28
2023-05-22T06:57:03.052Z,45.85
2023-05-22T06:59:30.789Z,44.78
2023-05-22T07:01:57.370Z,43.17
2023-05-22T07:04:23.885Z,46.60
2023-05-22T07:06:50.619Z,45.90
2023-05-22T07:09:18.788Z,50.45
2023-05-22T07:11:46.108Z,42.05
2023-05-22T07:14:12.832Z,42.42
2023-05-22T07:16:41.237Z,46.72
2023-05-22T07:19:08.144Z,48.13
2023-05-22T07:21:35.183Z,48.45
2023-05-22T07:24:02.560Z,44.22
2023-05-22T07:26:29.239Z,42.42
2023-05-22T07:28:55.917Z,41.00
2023-05-22T07:31:22.502Z,40.55
2023-05-22T07:33:49.036Z,41.25
2023-05-22T07:36:15.568Z,46.03
2023-05-22T07:38:42.108Z,36.42
2023-05-22T07:41:08.628Z,40.05
2023-05-22T07:43:35.194Z,41.00
2023-05-22T07:46:01.863Z,48.85
2023-05-22T07:48:28.468Z,38.40
2023-05-22T07:50:55.051Z,38.35
2023-05-22T07:53:21.662Z,42.08
2023-05-22T07:55:48.326Z,41.88
2023-05-22T07:58:14.892Z,40.15
2023-05-22T08:00:41.547Z,44.10
2023-05-22T08:03:08.195Z,49.15
2023-05-22T08:05:35.113Z,49.97
2023-05-22T08:08:01.664Z,51.40
2023-05-22T08:10:33.361Z,48.55
2023-05-22T08:13:08.362Z,48.25
2023-05-22T08:15:35.188Z,48.50
2023-05-22T08:18:01.825Z,45.63
2023-05-22T08:20:28.467Z,43.15
2023-05-22T08:22:55.041Z,46.55
2023-05-22T08:25:21.618Z,41.85
2023-05-22T08:27:48.216Z,47.38
2023-05-22T08:30:14.890Z,45.33
2023-05-22T08:32:41.566Z,49.13
2023-05-22T08:35:08.434Z,48.80
2023-05-22T08:37:35.003Z,51.38
2023-05-22T08:40:01.591Z,50.33
2023-05-22T08:42:28.299Z,57.67
2023-05-22T08:44:54.874Z,50.85
2023-05-22T08:47:24.835Z,64.07
2023-05-22T08:49:53.717Z,49.65
2023-05-22T08:52:22.748Z,54.58
2023-05-22T08:54:54.341Z,62.33
2023-05-22T08:57:21.492Z,48.90
2023-05-22T08:59:49.170Z,50.65
2023-05-22T09:02:17.223Z,49.60
2023-05-22T09:04:43.914Z,48.70
2023-05-22T09:07:10.594Z,49.60
2023-05-22T09:09:40.941Z,48.67
2023-05-22T09:12:09.024Z,51.60
2023-05-22T09:14:39.489Z,53.13
2023-05-22T09:17:06.304Z,56.85
2023-05-22T09:19:33.029Z,53.95
2023-05-22T09:22:05.593Z,59.05
2023-05-22T09:24:38.749Z,55.13
2023-05-22T09:27:09.174Z,57.65
2023-05-22T09:29:49.265Z,59.25
2023-05-22T09:32:16.927Z,58.03
2023-05-22T09:34:43.867Z,57.47
2023-05-22T09:37:11.077Z,68.00
2023-05-22T09:39:43.421Z,65.55
2023-05-22T09:42:11.031Z,61.72
2023-05-22T09:44:39.193Z,58.20
2023-05-22T09:47:09.096Z,58.65
2023-05-22T09:49:45.760Z,66.25
2023-05-22T09:52:12.648Z,66.22
2023-05-22T09:54:51.149Z,60.85
2023-05-22T09:57:19.417Z,62.25
2023-05-22T09:59:50.878Z,65.32
2023-05-22T10:02:19.081Z,61.55
2023-05-22T10:04:48.376Z,64.53
2023-05-22T10:07:15.928Z,69.20
2023-05-22T10:09:43.247Z,66.65
2023-05-22T10:12:10.743Z,65.70
2023-05-22T10:14:37.561Z,66.82
2023-05-22T10:17:04.719Z,62.03
2023-05-22T10:19:32.076Z,66.57
2023-05-22T10:22:00.445Z,65.00
2023-05-22T10:24:27.356Z,62.85
2023-05-22T10:26:54.550Z,62.72
2023-05-22T10:29:50.063Z,56.53
2023-05-22T10:32:47.688Z,59.67
2023-05-22T10:35:14.250Z,61.78
2023-05-22T10:38:06.770Z,60.88
2023-05-22T10:40:36.267Z,56.55
2023-05-22T10:43:03.698Z,60.03
2023-05-22T10:45:31.668Z,52.67
2023-05-22T10:48:09.119Z,59.75
2023-05-22T10:50:36.388Z,56.17
2023-05-22T10:53:38.832Z,57.20
2023-05-22T10:56:15.371Z,51.63
2023-05-22T10:58:59.847Z,59.75
2023-05-22T11:01:26.741Z,56.70
2023-05-22T11:04:00.407Z,58.47
2023-05-22T11:06:41.756Z,56.25
2023-05-22T11:12:15.166Z,59.95
2023-05-22T11:14:42.110Z,59.53
2023-05-22T11:17:11.613Z,61.95
2023-05-22T11:19:40.958Z,58.55
2023-05-22T11:22:07.851Z,67.22
2023-05-22T11:24:34.767Z,62.30
2023-05-22T11:27:08.617Z,60.90
2023-05-22T11:29:35.462Z,60.13
2023-05-22T11:32:02.166Z,64.55
2023-05-22T11:34:29.033Z,61.78
2023-05-22T11:36:59.467Z,69.18
2023-05-22T11:39:26.521Z,67.80
2023-05-22T11:41:53.175Z,68.05
2023-05-22T11:44:19.964Z,64.72
2023-05-22T11:46:46.696Z,70.70
2023-05-22T11:49:13.561Z,66.97
2023-05-22T11:51:40.611Z,72.47
2023-05-22T11:54:07.690Z,63.13
2023-05-22T11:56:34.394Z,68.57
2023-05-22T11:59:01.103Z,70.32
2023-05-22T12:01:27.624Z,69.20
2023-05-22T12:03:54.280Z,72.25
2023-05-22T12:06:21.031Z,67.68
2023-05-22T12:08:47.672Z,71.63
2023-05-22T12:11:14.316Z,70.72
2023-05-22T12:13:40.943Z,72.38
2023-05-22T12:16:21.017Z,80.50
2023-05-22T12:18:53.856Z,75.22
2023-05-22T12:21:21.660Z,70.25
2023-05-22T12:23:51.789Z,72.72
2023-05-22T12:26:19.148Z,77.47
2023-05-22T12:28:45.705Z,71.18
2023-05-22T12:31:20.433Z,71.00
2023-05-22T12:33:47.026Z,69.88
2023-05-22T12:36:13.734Z,68.22
2023-05-22T12:38:41.008Z,63.33
2023-05-22T12:41:07.932Z,73.80
2023-05-22T12:43:34.564Z,69.80
2023-05-22T12:46:02.666Z,66.20
2023-05-22T12:48:29.607Z,61.30
2023-05-22T12:50:56.261Z,63.20
2023-05-22T12:53:22.819Z,66.40
2023-05-22T12:55:49.355Z,58.47
2023-05-22T12:58:15.956Z,67.60
2023-05-22T13:00:42.571Z,63.38
2023-05-22T13:03:09.787Z,63.85
2023-05-22T13:05:36.370Z,64.53
2023-05-22T13:08:02.953Z,65.15
2023-05-22T13:10:29.562Z,64.13
2023-05-22T13:12:56.420Z,65.82
2023-05-22T13:15:22.973Z,63.17
2023-05-22T13:17:49.588Z,63.20
2023-05-22T13:20:16.296Z,66.13
2023-05-22T13:22:42.840Z,57.45
2023-05-22T13:25:09.663Z,65.75
2023-05-22T13:27:36.248Z,64.68
2023-05-22T13:30:02.930Z,63.35
2023-05-22T13:32:29.649Z,63.22
2023-05-22T13:34:56.204Z,66.25
2023-05-22T13:37:22.901Z,59.70
2023-05-22T13:39:49.480Z,61.78
2023-05-22T13:42:16.254Z,66.25
2023-05-22T13:44:42.807Z,62.50
2023-05-22T13:47:09.428Z,61.60
2023-05-22T13:49:36.021Z,67.22
2023-05-22T13:52:02.598Z,70.40
2023-05-22T13:54:29.230Z,63.72
2023-05-22T13:56:55.755Z,66.15
2023-05-22T13:59:22.315Z,62.80
2023-05-22T14:01:48.935Z,62.33
2023-05-22T14:04:15.478Z,62.60
2023-05-22T14:06:42.801Z,65.72
2023-05-22T14:09:09.371Z,62.03
2023-05-22T14:11:35.972Z,62.55
2023-05-22T14:14:02.506Z,64.47
2023-05-22T14:16:29.213Z,64.60
2023-05-22T14:18:55.990Z,61.33
2023-05-22T14:21:22.572Z,62.20
2023-05-22T14:23:49.101Z,63.15
2023-05-22T14:26:15.778Z,68.90
2023-05-22T14:28:42.628Z,59.22
2023-05-22T14:31:09.230Z,59.08
2023-05-22T14:33:36.225Z,61.35
2023-05-22T14:36:02.806Z,60.55
2023-05-22T14:38:32.314Z,61.63
2023-05-22T14:40:59.280Z,57.60
2023-05-22T14:43:25.884Z,61.40
2023-05-22T14:45:52.576Z,57.78
2023-05-22T14:48:19.257Z,59.78
2023-05-22T14:50:47.014Z,57.65
2023-05-22T14:53:13.592Z,59.85
2023-05-22T14:55:40.389Z,59.20
2023-05-22T14:58:07.132Z,59.25
2023-05-22T15:00:33.726Z,60.63
2023-05-22T15:03:00.333Z,58.45
2023-05-22T15:05:26.976Z,66.32
2023-05-22T15:07:53.536Z,56.58
2023-05-22T15:10:20.105Z,55.28
2023-05-22T15:12:46.665Z,57.25
2023-05-22T15:15:13.311Z,58.25
2023-05-22T15:17:42.418Z,58.72
2023-05-22T15:20:10.582Z,59.60
2023-05-22T15:22:37.136Z,56.17
2023-05-22T15:25:08.681Z,56.78
2023-05-22T15:27:35.885Z,54.17
2023-05-22T15:30:03.789Z,54.95
2023-05-22T15:32:32.463Z,56.10
2023-05-22T15:34:59.085Z,52.83
2023-05-22T15:37:25.650Z,55.00
2023-05-22T15:39:52.189Z,54.35
2023-05-22T15:42:18.840Z,54.55
2023-05-22T15:44:45.414Z,57.42
2023-05-22T15:47:11.967Z,52.45
2023-05-22T15:49:38.527Z,54.53
2023-05-22T15:52:05.249Z,53.83
2023-05-22T15:54:31.823Z,54.75
2023-05-22T15:56:58.389Z,62.75
2023-05-22T15:59:24.936Z,59.17
2023-05-22T16:01:51.489Z,57.78
2023-05-22T16:04:18.148Z,56.47
2023-05-22T16:06:44.724Z,58.92
2023-05-22T16:09:11.235Z,53.88
2023-05-22T16:11:37.927Z,54.60
2023-05-22T16:14:04.662Z,53.58
2023-05-22T16:16:31.256Z,51.72
2023-05-22T16:18:57.887Z,52.08
2023-05-22T16:21:24.628Z,52.88
2023-05-22T16:23:51.220Z,51.05
2023-05-22T16:26:17.800Z,49.90
2023-05-22T16:28:44.481Z,54.83
2023-05-22T16:31:11.087Z,52.55
2023-05-22T16:33:37.767Z,54.88
2023-05-22T16:36:04.744Z,47.88
2023-05-22T16:38:31.309Z,49.70
2023-05-22T16:40:57.854Z,51.95
2023-05-22T16:43:24.543Z,52.17
2023-05-22T16:45:51.332Z,44.15
2023-05-22T16:48:18.272Z,53.00
2023-05-22T16:50:44.847Z,50.95
2023-05-22T16:53:11.407Z,46.55
2023-05-22T16:55:38.224Z,42.97
2023-05-22T16:58:05.071Z,48.22
2023-05-22T17:00:31.708Z,45.42
2023-05-22T17:02:58.546Z,44.80
2023-05-22T17:05:25.394Z,45.85
2023-05-22T17:07:51.964Z,44.65
2023-05-22T17:10:18.535Z,42.40
2023-05-22T17:12:45.071Z,45.92
2023-05-22T17:15:12.006Z,45.88
2023-05-22T17:17:38.608Z,45.92
2023-05-22T17:20:05.674Z,46.42
2023-05-22T17:22:32.410Z,45.83
2023-05-22T17:24:58.940Z,44.53
2023-05-22T17:27:35.554Z,41.65
2023-05-22T17:30:04.470Z,45.90
2023-05-22T17:32:31.154Z,47.30
2023-05-22T17:34:57.787Z,45.25
2023-05-22T17:37:24.304Z,49.25
2023-05-22T17:39:50.905Z,41.05
2023-05-22T17:42:17.469Z,45.47
2023-05-22T17:44:44.062Z,42.42
2023-05-22T17:47:10.643Z,40.55
2023-05-22T17:49:37.453Z,45.65
2023-05-22T17:52:04.098Z,41.92
2023-05-22T17:54:34.763Z,40.80
2023-05-22T17:57:01.784Z,36.67
2023-05-22T17:59:28.291Z,39.78
2023-05-22T18:01:55.016Z,42.63
2023-05-22T18:04:21.650Z,37.85
2023-05-22T18:06:48.228Z,37.03
2023-05-22T18:09:14.795Z,38.88
2023-05-22T18:11:41.368Z,36.78
2023-05-22T18:14:07.942Z,33.80
2023-05-22T18:16:34.594Z,35.42
2023-05-22T18:19:01.229Z,37.13
2023-05-22T18:21:28.113Z,40.60
2023-05-22T18:23:55.533Z,34.38
2023-05-22T18:26:22.123Z,36.85
2023-05-22T18:28:48.659Z,34.25
2023-05-22T18:31:15.522Z,33.75
2023-05-22T18:33:42.085Z,34.40
2023-05-22T18:36:08.672Z,29.60
2023-05-22T18:38:35.214Z,34.13
2023-05-22T18:41:01.780Z,32.47
2023-05-22T18:43:28.438Z,33.38
2023-05-22T18:45:55.793Z,33.75
2023-05-22T18:48:22.757Z,28.88
2023-05-22T18:50:49.532Z,31.77
2023-05-22T18:53:16.078Z,36.08
2023-05-22T18:55:43.251Z,30.35
2023-05-22T18:58:11.157Z,32.35
2023-05-22T19:00:37.795Z,38.13
2023-05-22T19:03:06.021Z,33.42
2023-05-22T19:05:35.739Z,37.90
2023-05-22T19:08:02.534Z,33.55
2023-05-22T19:10:29.061Z,34.05
2023-05-22T19:12:55.661Z,36.53
2023-05-22T19:15:22.411Z,36.30
2023-05-22T19:17:49.002Z,36.03
2023-05-22T19:20:19.084Z,39.22
2023-05-22T19:22:45.605Z,37.13
2023-05-22T19:25:12.169Z,36.28
2023-05-22T19:27:39.411Z,37.20
2023-05-22T19:30:06.856Z,38.38
2023-05-22T19:32:33.456Z,34.80
2023-05-22T19:35:00.060Z,39.33
2023-05-22T19:37:26.654Z,42.65
2023-05-22T19:39:53.978Z,36.65
2023-05-22T19:42:20.566Z,41.13
2023-05-22T19:44:47.205Z,35.92
2023-05-22T19:47:13.922Z,36.85
2023-05-22T19:49:40.519Z,42.25
2023-05-22T19:52:07.129Z,37.13
2023-05-22T19:54:34.649Z,44.90
2023-05-22T19:57:02.016Z,36.65
2023-05-22T19:59:28.650Z,42.25
2023-05-22T20:01:55.246Z,40.33
2023-05-22T20:04:21.825Z,39.58
2023-05-22T20:06:48.402Z,44.00
2023-05-22T20:09:15.096Z,44.67
2023-05-22T20:11:41.639Z,46.25
2023-05-22T20:14:08.262Z,38.92
2023-05-22T20:16:35.009Z,49.20
2023-05-22T20:19:01.663Z,43.60
2023-05-22T20:21:28.307Z,37.65
2023-05-22T20:23:54.869Z,39.33
2023-05-22T20:26:21.430Z,39.22
2023-05-22T20:28:48.077Z,41.25
2023-05-22T20:31:14.697Z,38.22
2023-05-22T20:33:41.281Z,41.58
2023-05-22T20:36:07.958Z,42.95
2023-05-22T20:38:34.483Z,39.47
2023-05-22T20:41:02.004Z,41.20
2023-05-22T20:43:28.583Z,42.00
2023-05-22T20:45:55.232Z,43.55
2023-05-22T20:48:21.772Z,36.75
2023-05-22T20:50:48.356Z,33.97
2023-05-22T20:53:14.866Z,38.55
2023-05-22T20:55:41.631Z,36.90
2023-05-22T20:58:08.331Z,37.33
2023-05-22T21:00:35.048Z,36.40
2023-05-22T21:03:01.666Z,38.40
2023-05-22T21:05:28.303Z,36.33
2023-05-22T21:07:54.895Z,33.28
2023-05-22T21:10:21.428Z,40.65
2023-05-22T21:12:47.989Z,35.60
2023-05-22T21:15:14.533Z,37.10
2023-05-22T21:17:41.090Z,40.45
2023-05-22T21:20:07.917Z,38.88
2023-05-22T21:22:34.445Z,41.47
2023-05-22T21:25:00.989Z,43.17
2023-05-22T21:27:27.588Z,39.38
2023-05-22T21:29:54.237Z,47.97
2023-05-22T21:32:20.799Z,41.30
2023-05-22T21:34:47.328Z,41.10
2023-05-22T21:37:13.889Z,45.70
2023-05-22T21:39:40.551Z,41.67
2023-05-22T21:42:07.413Z,39.97
2023-05-22T21:44:34.180Z,46.42
2023-05-22T21:47:00.818Z,45.90
2023-05-22T21:49:27.500Z,46.08
2023-05-22T21:51:54.101Z,39.72
2023-05-22T21:54:20.653Z,44.40
2023-05-22T21:56:47.261Z,45.33
2023-05-22T21:59:13.943Z,42.53
2023-05-22T22:01:40.818Z,45.78
2023-05-22T22:04:07.453Z,43.80
2023-05-22T22:06:34.061Z,45.90
2023-05-22T22:09:00.625Z,43.58
2023-05-22T22:11:27.197Z,43.50
2023-05-22T22:13:53.747Z,46.72
2023-05-22T22:16:20.505Z,41.35
2023-05-22T22:18:47.440Z,39.88
2023-05-22T22:21:14.017Z,51.45
2023-05-22T22:23:40.717Z,46.85
2023-05-22T22:26:07.708Z,52.30
2023-05-22T22:28:34.266Z,54.63
2023-05-22T22:31:00.776Z,49.03
2023-05-22T22:33:27.339Z,52.72
2023-05-22T22:35:53.943Z,50.20
2023-05-22T22:38:20.524Z,49.72
2023-05-22T22:40:47.167Z,52.13
2023-05-22T22:43:13.717Z,55.55
2023-05-22T22:45:40.548Z,54.08
2023-05-22T22:48:07.547Z,50.13
2023-05-22T22:50:34.264Z,50.90
2023-05-22T22:53:00.850Z,43.72
2023-05-22T22:55:27.492Z,46.67
2023-05-22T22:57:54.340Z,44.05
2023-05-22T23:00:20.951Z,44.25
2023-05-22T23:02:47.589Z,42.08
2023-05-22T23:05:14.448Z,40.85
2023-05-22T23:07:41.219Z,49.08
2023-05-22T23:10:08.507Z,45.83
2023-05-22T23:12:35.154Z,48.78
2023-05-22T23:15:02.626Z,52.22
2023-05-22T23:17:29.467Z,51.35
2023-05-22T23:19:56.206Z,48.05
2023-05-22T23:22:23.459Z,40.50
2023-05-22T23:24:50.045Z,43.92
2023-05-22T23:27:16.612Z,42.80
2023-05-22T23:29:43.203Z,38.28
2023-05-22T23:32:10.525Z,36.47
2023-05-22T23:34:38.307Z,32.78
2023-05-22T23:37:04.826Z,26.85
2023-05-22T23:39:31.356Z,20.67
2023-05-22T23:41:57.856Z,20.40
2023-05-22T23:44:24.419Z,14.30
2023-05-22T23:46:51.062Z,16.58
2023-05-22T23:49:17.668Z,13.00
2023-05-22T23:51:44.296Z,14.13
2023-05-22T23:54:10.835Z,12.02
2023-05-22T23:56:37.342Z,13.80
2023-05-22T23:59:03.891Z,11.90
